createdAt,value
2022-12-29T00:07:22.135Z,78.60
2022-12-29T00:15:40.001Z,78.10
2022-12-29T00:24:00.403Z,78.00
2022-12-29T00:32:18.359Z,79.00
2022-12-29T00:40:38.714Z,79.00
2022-12-29T00:48:56.470Z,79.00
2022-12-29T00:57:04.946Z,79.50
2022-12-29T01:05:10.970Z,78.90
2022-12-29T01:13:19.594Z,79.50
2022-12-29T01:21:25.167Z,78.80
2022-12-29T01:29:33.220Z,79.70
2022-12-29T01:37:38.623Z,81.30
2022-12-29T01:45:52.259Z,80.70
2022-12-29T01:53:59.738Z,80.70
2022-12-29T02:02:08.570Z,80.00
2022-12-29T02:10:14.057Z,79.80
2022-12-29T02:18:36.440Z,80.00
2022-12-29T02:27:12.308Z,80.00
2022-12-29T02:35:32.032Z,80.80
2022-12-29T02:43:43.516Z,80.40
2022-12-29T02:51:56.775Z,80.40
2022-12-29T03:00:08.764Z,80.30
2022-12-29T03:08:27.047Z,80.40
2022-12-29T03:16:40.345Z,80.80
2022-12-29T03:24:52.117Z,80.50
2022-12-29T03:33:02.547Z,80.70
2022-12-29T03:41:18.653Z,80.80
2022-12-29T03:49:23.807Z,82.00
2022-12-29T03:57:32.924Z,81.80
2022-12-29T04:05:42.624Z,81.90
2022-12-29T04:13:50.833Z,82.60
2022-12-29T04:22:00.531Z,81.50
2022-12-29T04:30:10.865Z,82.70
2022-12-29T04:38:31.748Z,81.40
2022-12-29T04:46:47.029Z,81.60
2022-12-29T04:55:08.443Z,80.80
2022-12-29T05:03:16.812Z,80.90
2022-12-29T05:11:24.281Z,79.50
2022-12-29T05:19:34.825Z,78.80
2022-12-29T05:27:40.812Z,80.10
2022-12-29T05:36:01.219Z,79.40
2022-12-29T05:44:07.257Z,79.80
2022-12-29T05:52:34.005Z,80.20
2022-12-29T06:00:39.633Z,80.50
2022-12-29T06:08:48.241Z,81.70
2022-12-29T06:16:53.814Z,82.70
2022-12-29T06:25:05.162Z,82.60
2022-12-29T06:33:13.140Z,82.20
2022-12-29T06:41:23.553Z,81.00
2022-12-29T06:49:49.789Z,81.20
2022-12-29T06:57:58.547Z,81.40
2022-12-29T07:06:04.015Z,81.10
2022-12-29T07:14:12.405Z,82.20
2022-12-29T07:22:18.153Z,81.20
2022-12-29T07:30:26.502Z,81.20
2022-12-29T07:38:32.852Z,79.70
2022-12-29T07:46:56.343Z,78.70
2022-12-29T07:55:02.871Z,78.70
2022-12-29T08:03:11.097Z,78.50
2022-12-29T08:11:16.791Z,69.10
2022-12-29T08:19:25.665Z,60.40
2022-12-29T08:27:31.563Z,55.70
2022-12-29T08:35:43.158Z,55.40
2022-12-29T08:43:51.382Z,50.60
2022-12-29T08:51:59.646Z,51.80
2022-12-29T09:00:09.274Z,50.80
2022-12-29T09:08:23.883Z,49.10
2022-12-29T09:16:34.752Z,47.20
2022-12-29T09:26:07.553Z,43.90
2022-12-29T10:35:24.410Z,51.40
2022-12-29T10:43:52.462Z,56.50
2022-12-29T10:52:05.168Z,59.20
2022-12-29T11:00:24.265Z,61.80
2022-12-29T11:08:39.355Z,63.20
2022-12-29T11:16:47.481Z,63.00
2022-12-29T11:25:08.960Z,63.30
2022-12-29T11:33:24.688Z,64.80
2022-12-29T11:41:36.031Z,65.90
2022-12-29T11:49:42.723Z,65.30
2022-12-29T11:57:51.273Z,65.00
2022-12-29T12:06:02.844Z,64.60
2022-12-29T12:14:22.039Z,64.90
2022-12-29T12:22:58.525Z,64.90
2022-12-29T12:31:09.475Z,67.40
2022-12-29T12:39:30.666Z,67.90
2022-12-29T12:47:56.617Z,68.40
2022-12-29T12:56:27.759Z,68.10
2022-12-29T13:05:09.027Z,69.10
2022-12-29T13:13:38.070Z,70.20
2022-12-29T13:22:05.714Z,69.90
2022-12-29T13:30:17.016Z,69.70
2022-12-29T13:38:33.036Z,69.10
2022-12-29T13:46:46.853Z,68.80
2022-12-29T13:55:04.111Z,69.00
2022-12-29T14:03:46.803Z,67.30
2022-12-29T14:11:55.648Z,67.80
2022-12-29T14:20:03.697Z,67.20
2022-12-29T14:28:27.719Z,66.80
2022-12-29T14:36:40.458Z,66.90
2022-12-29T14:44:59.820Z,66.20
2022-12-29T14:53:09.546Z,66.30
2022-12-29T15:01:26.607Z,66.60
2022-12-29T15:09:39.874Z,66.90
2022-12-29T15:17:48.904Z,67.30
2022-12-29T15:25:59.927Z,68.10
2022-12-29T15:34:15.842Z,68.60
2022-12-29T15:42:43.813Z,68.50
2022-12-29T15:50:52.677Z,68.90
2022-12-29T15:58:59.579Z,69.30
2022-12-29T16:07:11.016Z,70.30
2022-12-29T16:15:18.126Z,70.20
2022-12-29T16:23:36.617Z,70.20
2022-12-29T16:32:01.928Z,70.60
2022-12-29T16:40:32.450Z,70.90
2022-12-29T16:48:41.194Z,71.40
2022-12-29T16:56:50.399Z,72.40
2022-12-29T17:04:55.947Z,72.50
2022-12-29T17:13:07.133Z,72.40
2022-12-29T17:21:14.059Z,72.20
2022-12-29T17:29:28.852Z,72.20
2022-12-29T17:37:37.862Z,73.10
2022-12-29T17:54:55.926Z,73.10
2022-12-29T18:12:43.770Z,73.40
2022-12-29T18:20:59.318Z,74.00
2022-12-29T18:29:37.056Z,74.40
2022-12-29T18:46:50.265Z,78.60
2022-12-29T19:04:30.832Z,77.30
2022-12-29T19:21:26.738Z,79.50
2022-12-29T19:29:34.944Z,80.10
2022-12-29T19:37:44.348Z,80.50
2022-12-29T19:45:51.590Z,79.50
2022-12-29T20:03:47.107Z,77.80
2022-12-29T20:12:13.856Z,77.80
2022-12-29T20:20:25.148Z,76.90
2022-12-29T20:29:13.859Z,76.70
2022-12-29T20:37:23.162Z,76.20
2022-12-29T20:55:11.967Z,75.10
2022-12-29T21:03:20.963Z,75.20
2022-12-29T21:11:27.055Z,74.80
2022-12-29T21:19:35.407Z,74.70
2022-12-29T21:27:40.802Z,74.40
2022-12-29T21:35:53.564Z,75.60
2022-12-29T21:44:11.386Z,77.20
2022-12-29T22:09:44.489Z,76.10
2022-12-29T22:35:18.039Z,79.50
2022-12-29T22:43:24.627Z,79.30
2022-12-29T22:51:32.894Z,79.80
2022-12-29T22:59:50.091Z,80.40
2022-12-29T23:07:58.018Z,80.60
2022-12-29T23:51:08.984Z,80.10
2022-12-29T23:59:14.400Z,81.20
